No particular awareness of the weather is required.    There are no Weather-warnings


Meteo18 Weather Cam more information Meteo18 Weather Cam


Thunder radar more information blitzortung!


Rain radar more information rain snow radar


Visit our other weather sites:

Template documentation
and downloads

And another site



Weather Underground History page Text

Daily Summary for August 21, 2017 Units:  Both    English   Metric
« Previous Day
Next Day »
Daily Weekly Monthly Yearly Custom
  High: Low: Average:
Temperature: 81 °F /  27.2 °C 54.3 °F /  12.4 °C 66.7 °F /  19.3 °C
Dew Point: 60.3 °F /  15.7 °C 50.2 °F /  10.1 °C 55 °F /  12.8 °C
Humidity: 90 % 47 % 68 %
Wind Speed: 6 mph /  9.7 km/h - 1.3 mph /  2.1 km/h
Wind Gust: 10 mph /  16.1 km/h - -
Wind:- - ESE
Pressure: 30.3 in /  1026.0 hPa 30.2 in /  1021.2 hPa -
Precipitation: 0 in /  0.0 mm    
Historical Graphs
 
 
Tabular Data for August 21, 2017
Time Temperature Dew Point Pressure Wind Wind Speed Wind Gust Humidity Rainfall Rate (Hourly)
00:02 57.2 °F /  14.0 °C 51.8 °F /  11.0 °C 30.3 in /  1026.0 hPa Calm   1 mph /  1.6 km/h 82 % 0 in /  0.0 mm
00:12 57.2 °F /  14.0 °C 51.4 °F /  10.8 °C 30.3 in /  1026.0 hPa Calm   1 mph /  1.6 km/h 81 % 0 in /  0.0 mm
00:17 56.8 °F /  13.8 °C 51.4 °F /  10.8 °C 30.3 in /  1026.0 hPa Calm   1 mph /  1.6 km/h 82 % 0 in /  0.0 mm
00:22 57 °F /  13.9 °C 51.3 °F /  10.7 °C 30.3 in /  1026.0 hPa Calm   1 mph /  1.6 km/h 81 % 0 in /  0.0 mm
00:32 57.6 °F /  14.2 °C 51.4 °F /  10.8 °C 30.3 in /  1026.0 hPa Calm   1 mph /  1.6 km/h 80 % 0 in /  0.0 mm
00:37 57.4 °F /  14.1 °C 51.3 °F /  10.7 °C 30.3 in /  1026.0 hPa Calm   1 mph /  1.6 km/h 80 % 0 in /  0.0 mm
00:42 57.4 °F /  14.1 °C 51.3 °F /  10.7 °C 30.3 in /  1026.0 hPa Calm   1 mph /  1.6 km/h 80 % 0 in /  0.0 mm
00:52 56.5 °F /  13.6 °C 51.4 °F /  10.8 °C 30.3 in /  1026.0 hPa Calm   1 mph /  1.6 km/h 83 % 0 in /  0.0 mm
00:57 56.1 °F /  13.4 °C 51.4 °F /  10.8 °C 30.3 in /  1026.0 hPa Calm   1 mph /  1.6 km/h 84 % 0 in /  0.0 mm
01:02 55.8 °F /  13.2 °C 51.1 °F /  10.6 °C 30.3 in /  1026.0 hPa WNW 1 mph /  1.6 km/h 1 mph /  1.6 km/h 84 % 0 in /  0.0 mm
01:09 55.6 °F /  13.1 °C 50.9 °F /  10.5 °C 30.3 in /  1026.0 hPa Calm   2 mph /  3.2 km/h 84 % 0 in /  0.0 mm
01:17 55.6 °F /  13.1 °C 51.1 °F /  10.6 °C 30.3 in /  1026.0 hPa WNW 1 mph /  1.6 km/h 2 mph /  3.2 km/h 85 % 0 in /  0.0 mm
01:22 55.8 °F /  13.2 °C 51.1 °F /  10.6 °C 30.3 in /  1026.0 hPa Calm   1 mph /  1.6 km/h 84 % 0 in /  0.0 mm
01:29 56.1 °F /  13.4 °C 51.1 °F /  10.6 °C 30.3 in /  1026.0 hPa Calm   1 mph /  1.6 km/h 83 % 0 in /  0.0 mm
01:37 55.9 °F /  13.3 °C 50.9 °F /  10.5 °C 30.3 in /  1026.0 hPa Calm   1 mph /  1.6 km/h 83 % 0 in /  0.0 mm
01:42 55.8 °F /  13.2 °C 50.7 °F /  10.4 °C 30.3 in /  1025.6 hPa Calm   1 mph /  1.6 km/h 83 % 0 in /  0.0 mm
01:47 55.8 °F /  13.2 °C 51.1 °F /  10.6 °C 30.3 in /  1025.6 hPa Calm   1 mph /  1.6 km/h 84 % 0 in /  0.0 mm
01:52 55.6 °F /  13.1 °C 50.9 °F /  10.5 °C 30.3 in /  1025.6 hPa Calm   1 mph /  1.6 km/h 84 % 0 in /  0.0 mm
01:57 55.2 °F /  12.9 °C 50.7 °F /  10.4 °C 30.3 in /  1025.6 hPa Calm   1 mph /  1.6 km/h 85 % 0 in /  0.0 mm
02:02 55.2 °F /  12.9 °C 50.7 °F /  10.4 °C 30.3 in /  1025.6 hPa Calm   1 mph /  1.6 km/h 85 % 0 in /  0.0 mm
02:12 56.1 °F /  13.4 °C 50.7 °F /  10.4 °C 30.3 in /  1025.6 hPa Calm   2 mph /  3.2 km/h 82 % 0 in /  0.0 mm
02:17 56.1 °F /  13.4 °C 50.7 °F /  10.4 °C 30.3 in /  1026.0 hPa Calm   2 mph /  3.2 km/h 82 % 0 in /  0.0 mm
02:22 55.9 °F /  13.3 °C 50.5 °F /  10.3 °C 30.3 in /  1025.6 hPa Calm   2 mph /  3.2 km/h 82 % 0 in /  0.0 mm
02:32 55.9 °F /  13.3 °C 50.5 °F /  10.3 °C 30.3 in /  1025.6 hPa Calm   1 mph /  1.6 km/h 82 % 0 in /  0.0 mm
02:42 55.6 °F /  13.1 °C 50.5 °F /  10.3 °C 30.3 in /  1025.6 hPa Calm     83 % 0 in /  0.0 mm
02:47 55.2 °F /  12.9 °C 50.5 °F /  10.3 °C 30.3 in /  1025.6 hPa Calm     84 % 0 in /  0.0 mm
02:52 55 °F /  12.8 °C 50.5 °F /  10.3 °C 30.3 in /  1025.6 hPa Calm     85 % 0 in /  0.0 mm
03:02 55 °F /  12.8 °C 50.5 °F /  10.3 °C 30.3 in /  1025.6 hPa Calm     85 % 0 in /  0.0 mm
03:12 54.9 °F /  12.7 °C 50.4 °F /  10.2 °C 30.3 in /  1025.6 hPa Calm     85 % 0 in /  0.0 mm
03:17 54.5 °F /  12.5 °C 50.4 °F /  10.2 °C 30.3 in /  1025.6 hPa Calm     86 % 0 in /  0.0 mm
03:22 54.5 °F /  12.5 °C 50.4 °F /  10.2 °C 30.3 in /  1025.6 hPa Calm     86 % 0 in /  0.0 mm
03:32 54.3 °F /  12.4 °C 50.2 °F /  10.1 °C 30.3 in /  1025.6 hPa Calm     86 % 0 in /  0.0 mm
03:42 54.3 °F /  12.4 °C 50.2 °F /  10.1 °C 30.3 in /  1025.6 hPa Calm     86 % 0 in /  0.0 mm
03:47 54.3 °F /  12.4 °C 50.2 °F /  10.1 °C 30.3 in /  1025.6 hPa Calm     86 % 0 in /  0.0 mm
03:52 54.3 °F /  12.4 °C 50.2 °F /  10.1 °C 30.3 in /  1025.3 hPa Calm     86 % 0 in /  0.0 mm
03:57 54.3 °F /  12.4 °C 50.5 °F /  10.3 °C 30.3 in /  1025.3 hPa Calm     87 % 0 in /  0.0 mm
04:02 54.5 °F /  12.5 °C 50.7 °F /  10.4 °C 30.3 in /  1025.6 hPa Calm     87 % 0 in /  0.0 mm
04:07 54.7 °F /  12.6 °C 50.5 °F /  10.3 °C 30.3 in /  1025.3 hPa Calm     86 % 0 in /  0.0 mm
04:12 54.9 °F /  12.7 °C 51.1 °F /  10.6 °C 30.3 in /  1025.3 hPa Calm     87 % 0 in /  0.0 mm
04:17 54.9 °F /  12.7 °C 51.1 °F /  10.6 °C 30.3 in /  1025.3 hPa Calm     87 % 0 in /  0.0 mm
04:22 55 °F /  12.8 °C 51.3 °F /  10.7 °C 30.3 in /  1025.3 hPa Calm     87 % 0 in /  0.0 mm
04:32 55.2 °F /  12.9 °C 51.8 °F /  11.0 °C 30.3 in /  1025.3 hPa Calm     88 % 0 in /  0.0 mm
04:42 55.4 °F /  13.0 °C 52 °F /  11.1 °C 30.3 in /  1025.3 hPa Calm     88 % 0 in /  0.0 mm
04:47 55.6 °F /  13.1 °C 51.8 °F /  11.0 °C 30.3 in /  1025.3 hPa Calm     87 % 0 in /  0.0 mm
04:52 55.8 °F /  13.2 °C 52 °F /  11.1 °C 30.3 in /  1025.3 hPa Calm     87 % 0 in /  0.0 mm
05:02 55.9 °F /  13.3 °C 52.2 °F /  11.2 °C 30.3 in /  1025.3 hPa Calm     87 % 0 in /  0.0 mm
05:12 56.1 °F /  13.4 °C 52.3 °F /  11.3 °C 30.3 in /  1025.3 hPa Calm     87 % 0 in /  0.0 mm
05:22 56.1 °F /  13.4 °C 52.3 °F /  11.3 °C 30.3 in /  1024.9 hPa Calm     87 % 0 in /  0.0 mm
05:32 56.1 °F /  13.4 °C 52.3 °F /  11.3 °C 30.3 in /  1024.9 hPa Calm     87 % 0 in /  0.0 mm
05:42 55.9 °F /  13.3 °C 52.5 °F /  11.4 °C 30.3 in /  1024.9 hPa Calm     88 % 0 in /  0.0 mm
05:52 55.9 °F /  13.3 °C 52.5 °F /  11.4 °C 30.3 in /  1024.9 hPa Calm     88 % 0 in /  0.0 mm
05:57 55.9 °F /  13.3 °C 52.5 °F /  11.4 °C 30.3 in /  1024.9 hPa Calm     88 % 0 in /  0.0 mm
06:02 55.9 °F /  13.3 °C 52.5 °F /  11.4 °C 30.3 in /  1024.9 hPa Calm     88 % 0 in /  0.0 mm
06:12 56.1 °F /  13.4 °C 52.7 °F /  11.5 °C 30.3 in /  1024.9 hPa Calm     88 % 0 in /  0.0 mm
06:17 56.3 °F /  13.5 °C 52.9 °F /  11.6 °C 30.3 in /  1024.9 hPa Calm     88 % 0 in /  0.0 mm
06:22 56.3 °F /  13.5 °C 52.9 °F /  11.6 °C 30.3 in /  1024.9 hPa Calm     88 % 0 in /  0.0 mm
06:32 56.5 °F /  13.6 °C 52.9 °F /  11.6 °C 30.3 in /  1024.9 hPa Calm     88 % 0 in /  0.0 mm
06:37 56.5 °F /  13.6 °C 53.2 °F /  11.8 °C 30.3 in /  1024.9 hPa Calm     89 % 0 in /  0.0 mm
06:42 56.7 °F /  13.7 °C 53.4 °F /  11.9 °C 30.3 in /  1024.9 hPa Calm     89 % 0 in /  0.0 mm
06:52 56.7 °F /  13.7 °C 53.8 °F /  12.1 °C 30.3 in /  1024.9 hPa Calm     90 % 0 in /  0.0 mm
06:57 56.8 °F /  13.8 °C 54 °F /  12.2 °C 30.3 in /  1024.9 hPa Calm     90 % 0 in /  0.0 mm
07:02 56.8 °F /  13.8 °C 53.6 °F /  12.0 °C 30.3 in /  1024.9 hPa Calm     89 % 0 in /  0.0 mm
07:12 56.8 °F /  13.8 °C 53.2 °F /  11.8 °C 30.3 in /  1024.9 hPa Calm     88 % 0 in /  0.0 mm
07:17 57 °F /  13.9 °C 53.8 °F /  12.1 °C 30.3 in /  1024.9 hPa Calm     89 % 0 in /  0.0 mm
07:22 56.8 °F /  13.8 °C 53.1 °F /  11.7 °C 30.3 in /  1024.9 hPa Calm     87 % 0 in /  0.0 mm
07:32 57.4 °F /  14.1 °C 53.2 °F /  11.8 °C 30.3 in /  1024.9 hPa Calm     86 % 0 in /  0.0 mm
07:37 57.4 °F /  14.1 °C 52.9 °F /  11.6 °C 30.3 in /  1024.9 hPa Calm     85 % 0 in /  0.0 mm
07:42 57.6 °F /  14.2 °C 52.5 °F /  11.4 °C 30.3 in /  1024.9 hPa Calm     83 % 0 in /  0.0 mm
07:52 57.9 °F /  14.4 °C 52.7 °F /  11.5 °C 30.3 in /  1024.9 hPa Calm     83 % 0 in /  0.0 mm
07:57 58.3 °F /  14.6 °C 53.1 °F /  11.7 °C 30.3 in /  1024.9 hPa Calm     83 % 0 in /  0.0 mm
08:02 58.5 °F /  14.7 °C 52.7 °F /  11.5 °C 30.3 in /  1025.3 hPa Calm     81 % 0 in /  0.0 mm
08:12 59.4 °F /  15.2 °C 53.2 °F /  11.8 °C 30.3 in /  1025.3 hPa Calm     80 % 0 in /  0.0 mm
08:17 59.4 °F /  15.2 °C 52.9 °F /  11.6 °C 30.3 in /  1025.3 hPa Calm     79 % 0 in /  0.0 mm
08:22 59.4 °F /  15.2 °C 52.9 °F /  11.6 °C 30.3 in /  1025.3 hPa Calm     79 % 0 in /  0.0 mm
08:32 59 °F /  15.0 °C 53.2 °F /  11.8 °C 30.3 in /  1025.3 hPa Calm     81 % 0 in /  0.0 mm
08:42 59.4 °F /  15.2 °C 53.2 °F /  11.8 °C 30.3 in /  1025.3 hPa Calm     80 % 0 in /  0.0 mm
08:47 59.5 °F /  15.3 °C 53.8 °F /  12.1 °C 30.3 in /  1025.3 hPa Calm     81 % 0 in /  0.0 mm
08:57 60.6 °F /  15.9 °C 54.1 °F /  12.3 °C 30.3 in /  1024.9 hPa Calm   1 mph /  1.6 km/h 79 % 0 in /  0.0 mm
09:07 61.5 °F /  16.4 °C 53.6 °F /  12.0 °C 30.3 in /  1024.9 hPa SSW 2 mph /  3.2 km/h 4 mph /  6.4 km/h 75 % 0 in /  0.0 mm
09:12 62.1 °F /  16.7 °C 54 °F /  12.2 °C 30.3 in /  1025.3 hPa SSW 1 mph /  1.6 km/h 4 mph /  6.4 km/h 75 % 0 in /  0.0 mm
09:17 62.4 °F /  16.9 °C 53.6 °F /  12.0 °C 30.3 in /  1025.3 hPa Calm   4 mph /  6.4 km/h 73 % 0 in /  0.0 mm
09:22 63.1 °F /  17.3 °C 54 °F /  12.2 °C 30.3 in /  1024.9 hPa SSW 1 mph /  1.6 km/h 4 mph /  6.4 km/h 72 % 0 in /  0.0 mm
09:27 63.7 °F /  17.6 °C 54.5 °F /  12.5 °C 30.3 in /  1024.9 hPa SSE 2 mph /  3.2 km/h 2 mph /  3.2 km/h 72 % 0 in /  0.0 mm
09:32 63.9 °F /  17.7 °C 54.3 °F /  12.4 °C 30.3 in /  1024.9 hPa SSW 1 mph /  1.6 km/h 2 mph /  3.2 km/h 71 % 0 in /  0.0 mm
09:42 64.9 °F /  18.3 °C 54.1 °F /  12.3 °C 30.3 in /  1024.9 hPa WSW 2 mph /  3.2 km/h 4 mph /  6.4 km/h 68 % 0 in /  0.0 mm
09:52 65.1 °F /  18.4 °C 53.4 °F /  11.9 °C 30.3 in /  1024.9 hPa SW 2 mph /  3.2 km/h 4 mph /  6.4 km/h 66 % 0 in /  0.0 mm
09:57 65.5 °F /  18.6 °C 53.8 °F /  12.1 °C 30.3 in /  1024.9 hPa SSE 1 mph /  1.6 km/h 5 mph /  8.0 km/h 66 % 0 in /  0.0 mm
10:02 66 °F /  18.9 °C 54 °F /  12.2 °C 30.3 in /  1024.9 hPa SW 5 mph /  8.0 km/h 5 mph /  8.0 km/h 65 % 0 in /  0.0 mm
10:12 66.7 °F /  19.3 °C 55 °F /  12.8 °C 30.3 in /  1024.9 hPa SW 5 mph /  8.0 km/h 6 mph /  9.7 km/h 66 % 0 in /  0.0 mm
10:22 66.9 °F /  19.4 °C 54 °F /  12.2 °C 30.3 in /  1024.9 hPa SW 2 mph /  3.2 km/h 6 mph /  9.7 km/h 63 % 0 in /  0.0 mm
10:32 67.6 °F /  19.8 °C 54.7 °F /  12.6 °C 30.3 in /  1024.9 hPa SSW 4 mph /  6.4 km/h 6 mph /  9.7 km/h 63 % 0 in /  0.0 mm
10:42 67.8 °F /  19.9 °C 52.9 °F /  11.6 °C 30.3 in /  1024.9 hPa South 3 mph /  4.8 km/h 5 mph /  8.0 km/h 59 % 0 in /  0.0 mm
10:47 68.2 °F /  20.1 °C 53.8 °F /  12.1 °C 30.3 in /  1024.9 hPa WSW 2 mph /  3.2 km/h 6 mph /  9.7 km/h 60 % 0 in /  0.0 mm
10:52 68.4 °F /  20.2 °C 53.1 °F /  11.7 °C 30.3 in /  1024.9 hPa SSW 4 mph /  6.4 km/h 6 mph /  9.7 km/h 58 % 0 in /  0.0 mm
10:57 68.4 °F /  20.2 °C 53.1 °F /  11.7 °C 30.3 in /  1024.9 hPa SW 5 mph /  8.0 km/h 7 mph /  11.3 km/h 58 % 0 in /  0.0 mm
11:02 68.5 °F /  20.3 °C 54.1 °F /  12.3 °C 30.3 in /  1024.9 hPa SSW 1 mph /  1.6 km/h 7 mph /  11.3 km/h 60 % 0 in /  0.0 mm
11:12 70 °F /  21.1 °C 54.5 °F /  12.5 °C 30.3 in /  1024.6 hPa SW 4 mph /  6.4 km/h 7 mph /  11.3 km/h 58 % 0 in /  0.0 mm
11:17 70 °F /  21.1 °C 53.6 °F /  12.0 °C 30.3 in /  1024.6 hPa Calm   5 mph /  8.0 km/h 56 % 0 in /  0.0 mm
11:22 70.3 °F /  21.3 °C 52.9 °F /  11.6 °C 30.3 in /  1024.6 hPa South 2 mph /  3.2 km/h 5 mph /  8.0 km/h 54 % 0 in /  0.0 mm
11:32 70.9 °F /  21.6 °C 53.4 °F /  11.9 °C 30.3 in /  1024.3 hPa Calm   5 mph /  8.0 km/h 54 % 0 in /  0.0 mm
11:42 71.6 °F /  22.0 °C 53.6 °F /  12.0 °C 30.3 in /  1024.3 hPa SSW 1 mph /  1.6 km/h 6 mph /  9.7 km/h 53 % 0 in /  0.0 mm
11:52 72.3 °F /  22.4 °C 54.1 °F /  12.3 °C 30.3 in /  1024.6 hPa Calm   5 mph /  8.0 km/h 53 % 0 in /  0.0 mm
12:02 73 °F /  22.8 °C 53.2 °F /  11.8 °C 30.3 in /  1024.6 hPa Calm   4 mph /  6.4 km/h 50 % 0 in /  0.0 mm
12:12 72.7 °F /  22.6 °C 53.4 °F /  11.9 °C 30.3 in /  1024.3 hPa ENE 4 mph /  6.4 km/h 4 mph /  6.4 km/h 51 % 0 in /  0.0 mm
12:17 72.3 °F /  22.4 °C 53.2 °F /  11.8 °C 30.3 in /  1024.3 hPa ENE 1 mph /  1.6 km/h 4 mph /  6.4 km/h 51 % 0 in /  0.0 mm
12:22 72.7 °F /  22.6 °C 54 °F /  12.2 °C 30.3 in /  1024.3 hPa Calm   4 mph /  6.4 km/h 52 % 0 in /  0.0 mm
12:32 72.3 °F /  22.4 °C 53.8 °F /  12.1 °C 30.3 in /  1024.3 hPa SSW 1 mph /  1.6 km/h 7 mph /  11.3 km/h 52 % 0 in /  0.0 mm
12:42 74.5 °F /  23.6 °C 54.7 °F /  12.6 °C 30.3 in /  1024.3 hPa ENE 3 mph /  4.8 km/h 5 mph /  8.0 km/h 50 % 0 in /  0.0 mm
12:47 74.5 °F /  23.6 °C 54.1 °F /  12.3 °C 30.3 in /  1024.3 hPa East 5 mph /  8.0 km/h 5 mph /  8.0 km/h 49 % 0 in /  0.0 mm
12:52 72.9 °F /  22.7 °C 53.6 °F /  12.0 °C 30.3 in /  1024.3 hPa SW 4 mph /  6.4 km/h 5 mph /  8.0 km/h 51 % 0 in /  0.0 mm
13:02 73.9 °F /  23.3 °C 54.7 °F /  12.6 °C 30.3 in /  1024.3 hPa NNE 3 mph /  4.8 km/h 6 mph /  9.7 km/h 51 % 0 in /  0.0 mm
13:07 74.3 °F /  23.5 °C 55.6 °F /  13.1 °C 30.3 in /  1024.3 hPa NNW 4 mph /  6.4 km/h 9 mph /  14.5 km/h 52 % 0 in /  0.0 mm
13:12 74.5 °F /  23.6 °C 55.2 °F /  12.9 °C 30.3 in /  1024.3 hPa ENE 4 mph /  6.4 km/h 9 mph /  14.5 km/h 51 % 0 in /  0.0 mm
13:17 73.9 °F /  23.3 °C 54.7 °F /  12.6 °C 30.2 in /  1023.9 hPa East 3 mph /  4.8 km/h 10 mph /  16.1 km/h 51 % 0 in /  0.0 mm
13:22 73.9 °F /  23.3 °C 55.2 °F /  12.9 °C 30.2 in /  1023.9 hPa North 3 mph /  4.8 km/h 10 mph /  16.1 km/h 52 % 0 in /  0.0 mm
13:32 74.5 °F /  23.6 °C 54.7 °F /  12.6 °C 30.2 in /  1023.9 hPa NW 1 mph /  1.6 km/h 9 mph /  14.5 km/h 50 % 0 in /  0.0 mm
13:42 74.7 °F /  23.7 °C 54.9 °F /  12.7 °C 30.2 in /  1023.6 hPa NNE 3 mph /  4.8 km/h 5 mph /  8.0 km/h 50 % 0 in /  0.0 mm
13:47 75 °F /  23.9 °C 56.1 °F /  13.4 °C 30.2 in /  1023.6 hPa North 4 mph /  6.4 km/h 5 mph /  8.0 km/h 52 % 0 in /  0.0 mm
13:52 75.2 °F /  24.0 °C 55.8 °F /  13.2 °C 30.2 in /  1023.6 hPa Calm   5 mph /  8.0 km/h 51 % 0 in /  0.0 mm
14:02 76.1 °F /  24.5 °C 55.6 °F /  13.1 °C 30.2 in /  1023.6 hPa NNW 2 mph /  3.2 km/h 6 mph /  9.7 km/h 49 % 0 in /  0.0 mm
14:07 75.7 °F /  24.3 °C 56.3 °F /  13.5 °C 30.2 in /  1023.6 hPa NE 2 mph /  3.2 km/h 4 mph /  6.4 km/h 51 % 0 in /  0.0 mm
14:12 76.1 °F /  24.5 °C 56.1 °F /  13.4 °C 30.2 in /  1023.6 hPa NNE 3 mph /  4.8 km/h 4 mph /  6.4 km/h 50 % 0 in /  0.0 mm
14:17 76.1 °F /  24.5 °C 55.6 °F /  13.1 °C 30.2 in /  1023.2 hPa NE 3 mph /  4.8 km/h 7 mph /  11.3 km/h 49 % 0 in /  0.0 mm
14:22 75.6 °F /  24.2 °C 55.6 °F /  13.1 °C 30.2 in /  1023.2 hPa NW 1 mph /  1.6 km/h 7 mph /  11.3 km/h 50 % 0 in /  0.0 mm
14:32 76.6 °F /  24.8 °C 56.7 °F /  13.7 °C 30.2 in /  1023.2 hPa Calm   7 mph /  11.3 km/h 50 % 0 in /  0.0 mm
14:42 77.5 °F /  25.3 °C 56.3 °F /  13.5 °C 30.2 in /  1023.2 hPa SE 1 mph /  1.6 km/h 3 mph /  4.8 km/h 48 % 0 in /  0.0 mm
14:47 77.7 °F /  25.4 °C 56.5 °F /  13.6 °C 30.2 in /  1023.2 hPa SSW 2 mph /  3.2 km/h 3 mph /  4.8 km/h 48 % 0 in /  0.0 mm
14:57 78.3 °F /  25.7 °C 56.3 °F /  13.5 °C 30.2 in /  1023.2 hPa NNE 2 mph /  3.2 km/h 5 mph /  8.0 km/h 47 % 0 in /  0.0 mm
15:02 77.7 °F /  25.4 °C 55.9 °F /  13.3 °C 30.2 in /  1022.9 hPa Calm   5 mph /  8.0 km/h 47 % 0 in /  0.0 mm
15:12 78.3 °F /  25.7 °C 57 °F /  13.9 °C 30.2 in /  1022.9 hPa ENE 2 mph /  3.2 km/h 5 mph /  8.0 km/h 48 % 0 in /  0.0 mm
15:17 78.3 °F /  25.7 °C 56.3 °F /  13.5 °C 30.2 in /  1022.9 hPa ENE 2 mph /  3.2 km/h 5 mph /  8.0 km/h 47 % 0 in /  0.0 mm
15:22 77.7 °F /  25.4 °C 56.5 °F /  13.6 °C 30.2 in /  1022.9 hPa ENE 6 mph /  9.7 km/h 7 mph /  11.3 km/h 48 % 0 in /  0.0 mm
15:32 77 °F /  25.0 °C 56.3 °F /  13.5 °C 30.2 in /  1022.6 hPa Calm   7 mph /  11.3 km/h 49 % 0 in /  0.0 mm
15:37 77.2 °F /  25.1 °C 56.5 °F /  13.6 °C 30.2 in /  1022.6 hPa Calm   7 mph /  11.3 km/h 49 % 0 in /  0.0 mm
15:42 78.1 °F /  25.6 °C 57.4 °F /  14.1 °C 30.2 in /  1022.6 hPa ENE 3 mph /  4.8 km/h 6 mph /  9.7 km/h 49 % 0 in /  0.0 mm
15:47 78.3 °F /  25.7 °C 57 °F /  13.9 °C 30.2 in /  1022.6 hPa Calm   5 mph /  8.0 km/h 48 % 0 in /  0.0 mm
15:52 78.8 °F /  26.0 °C 57.4 °F /  14.1 °C 30.2 in /  1022.6 hPa North 2 mph /  3.2 km/h 4 mph /  6.4 km/h 48 % 0 in /  0.0 mm
16:02 78.6 °F /  25.9 °C 57.2 °F /  14.0 °C 30.2 in /  1022.2 hPa WSW 5 mph /  8.0 km/h 5 mph /  8.0 km/h 48 % 0 in /  0.0 mm
16:07 78.4 °F /  25.8 °C 58.3 °F /  14.6 °C 30.2 in /  1022.2 hPa Calm   5 mph /  8.0 km/h 50 % 0 in /  0.0 mm
16:17 79 °F /  26.1 °C 57.6 °F /  14.2 °C 30.2 in /  1022.2 hPa NE 4 mph /  6.4 km/h 5 mph /  8.0 km/h 48 % 0 in /  0.0 mm
16:22 79.2 °F /  26.2 °C 57.7 °F /  14.3 °C 30.2 in /  1022.2 hPa NE 2 mph /  3.2 km/h 6 mph /  9.7 km/h 48 % 0 in /  0.0 mm
16:32 79.2 °F /  26.2 °C 57.7 °F /  14.3 °C 30.2 in /  1022.2 hPa SSW 1 mph /  1.6 km/h 6 mph /  9.7 km/h 48 % 0 in /  0.0 mm
16:42 79.9 °F /  26.6 °C 57.9 °F /  14.4 °C 30.2 in /  1022.2 hPa WSW 3 mph /  4.8 km/h 5 mph /  8.0 km/h 47 % 0 in /  0.0 mm
16:47 80.1 °F /  26.7 °C 58.1 °F /  14.5 °C 30.2 in /  1022.2 hPa Calm   6 mph /  9.7 km/h 47 % 0 in /  0.0 mm
16:52 80.4 °F /  26.9 °C 58.3 °F /  14.6 °C 30.2 in /  1022.2 hPa Calm   6 mph /  9.7 km/h 47 % 0 in /  0.0 mm
17:02 80.4 °F /  26.9 °C 58.3 °F /  14.6 °C 30.2 in /  1021.9 hPa WNW 3 mph /  4.8 km/h 5 mph /  8.0 km/h 47 % 0 in /  0.0 mm
17:12 79.5 °F /  26.4 °C 58.6 °F /  14.8 °C 30.2 in /  1021.9 hPa NNW 2 mph /  3.2 km/h 5 mph /  8.0 km/h 49 % 0 in /  0.0 mm
17:17 79.3 °F /  26.3 °C 57.9 °F /  14.4 °C 30.2 in /  1021.9 hPa North 3 mph /  4.8 km/h 9 mph /  14.5 km/h 48 % 0 in /  0.0 mm
17:22 79.3 °F /  26.3 °C 57.4 °F /  14.1 °C 30.2 in /  1021.9 hPa NNE 1 mph /  1.6 km/h 9 mph /  14.5 km/h 47 % 0 in /  0.0 mm
17:32 79.2 °F /  26.2 °C 57.7 °F /  14.3 °C 30.2 in /  1021.9 hPa South 1 mph /  1.6 km/h 9 mph /  14.5 km/h 48 % 0 in /  0.0 mm
17:37 80.1 °F /  26.7 °C 58.6 °F /  14.8 °C 30.2 in /  1021.9 hPa Calm   4 mph /  6.4 km/h 48 % 0 in /  0.0 mm
17:42 79.5 °F /  26.4 °C 58.1 °F /  14.5 °C 30.2 in /  1021.9 hPa East 2 mph /  3.2 km/h 4 mph /  6.4 km/h 48 % 0 in /  0.0 mm
17:52 78.8 °F /  26.0 °C 58.1 °F /  14.5 °C 30.2 in /  1021.9 hPa Calm   5 mph /  8.0 km/h 49 % 0 in /  0.0 mm
18:02 78.4 °F /  25.8 °C 57.7 °F /  14.3 °C 30.2 in /  1021.6 hPa East 2 mph /  3.2 km/h 5 mph /  8.0 km/h 49 % 0 in /  0.0 mm
18:07 78.6 °F /  25.9 °C 57.9 °F /  14.4 °C 30.2 in /  1021.6 hPa ENE 2 mph /  3.2 km/h 5 mph /  8.0 km/h 49 % 0 in /  0.0 mm
18:17 78.8 °F /  26.0 °C 58.1 °F /  14.5 °C 30.2 in /  1021.6 hPa WNW 4 mph /  6.4 km/h 6 mph /  9.7 km/h 49 % 0 in /  0.0 mm
18:22 79 °F /  26.1 °C 58.1 °F /  14.5 °C 30.2 in /  1021.6 hPa Calm   6 mph /  9.7 km/h 49 % 0 in /  0.0 mm
18:32 81 °F /  27.2 °C 58.8 °F /  14.9 °C 30.2 in /  1021.6 hPa North 2 mph /  3.2 km/h 4 mph /  6.4 km/h 47 % 0 in /  0.0 mm
18:42 79.5 °F /  26.4 °C 58.1 °F /  14.5 °C 30.2 in /  1021.6 hPa NE 6 mph /  9.7 km/h 6 mph /  9.7 km/h 48 % 0 in /  0.0 mm
18:52 78.6 °F /  25.9 °C 59 °F /  15.0 °C 30.2 in /  1021.6 hPa NE 4 mph /  6.4 km/h 7 mph /  11.3 km/h 51 % 0 in /  0.0 mm
18:57 78.4 °F /  25.8 °C 58.8 °F /  14.9 °C 30.2 in /  1021.6 hPa NE 1 mph /  1.6 km/h 7 mph /  11.3 km/h 51 % 0 in /  0.0 mm
19:02 78.3 °F /  25.7 °C 58.6 °F /  14.8 °C 30.2 in /  1021.6 hPa ENE 5 mph /  8.0 km/h 7 mph /  11.3 km/h 51 % 0 in /  0.0 mm
19:12 77.5 °F /  25.3 °C 58.5 °F /  14.7 °C 30.2 in /  1021.6 hPa ENE 5 mph /  8.0 km/h 9 mph /  14.5 km/h 52 % 0 in /  0.0 mm
19:17 77.4 °F /  25.2 °C 58.8 °F /  14.9 °C 30.2 in /  1021.6 hPa NNE 4 mph /  6.4 km/h 7 mph /  11.3 km/h 53 % 0 in /  0.0 mm
19:22 77.5 °F /  25.3 °C 59 °F /  15.0 °C 30.2 in /  1021.6 hPa NE 4 mph /  6.4 km/h 7 mph /  11.3 km/h 53 % 0 in /  0.0 mm
19:32 77.7 °F /  25.4 °C 58.6 °F /  14.8 °C 30.2 in /  1021.2 hPa NE 2 mph /  3.2 km/h 6 mph /  9.7 km/h 52 % 0 in /  0.0 mm
19:42 77.5 °F /  25.3 °C 59 °F /  15.0 °C 30.2 in /  1021.2 hPa NE 4 mph /  6.4 km/h 6 mph /  9.7 km/h 53 % 0 in /  0.0 mm
19:52 77.2 °F /  25.1 °C 58.6 °F /  14.8 °C 30.2 in /  1021.2 hPa NE 2 mph /  3.2 km/h 7 mph /  11.3 km/h 53 % 0 in /  0.0 mm
19:57 77.2 °F /  25.1 °C 58.6 °F /  14.8 °C 30.2 in /  1021.2 hPa NE 6 mph /  9.7 km/h 8 mph /  12.9 km/h 53 % 0 in /  0.0 mm
20:02 76.8 °F /  24.9 °C 59.4 °F /  15.2 °C 30.2 in /  1021.2 hPa NNE 4 mph /  6.4 km/h 8 mph /  12.9 km/h 55 % 0 in /  0.0 mm
20:12 76.3 °F /  24.6 °C 59.4 °F /  15.2 °C 30.2 in /  1021.2 hPa NE 3 mph /  4.8 km/h 9 mph /  14.5 km/h 56 % 0 in /  0.0 mm
20:17 75.9 °F /  24.4 °C 59.5 °F /  15.3 °C 30.2 in /  1021.2 hPa NNE 4 mph /  6.4 km/h 6 mph /  9.7 km/h 57 % 0 in /  0.0 mm
20:22 75.7 °F /  24.3 °C 59.4 °F /  15.2 °C 30.2 in /  1021.2 hPa NE 4 mph /  6.4 km/h 6 mph /  9.7 km/h 57 % 0 in /  0.0 mm
20:32 75 °F /  23.9 °C 59.7 °F /  15.4 °C 30.2 in /  1021.2 hPa NNE 4 mph /  6.4 km/h 7 mph /  11.3 km/h 59 % 0 in /  0.0 mm
20:42 74.1 °F /  23.4 °C 59.7 °F /  15.4 °C 30.2 in /  1021.6 hPa NE 2 mph /  3.2 km/h 5 mph /  8.0 km/h 61 % 0 in /  0.0 mm
20:47 73.6 °F /  23.1 °C 60.3 °F /  15.7 °C 30.2 in /  1021.6 hPa North 3 mph /  4.8 km/h 5 mph /  8.0 km/h 63 % 0 in /  0.0 mm
20:52 73 °F /  22.8 °C 59.7 °F /  15.4 °C 30.2 in /  1021.6 hPa NNE 4 mph /  6.4 km/h 5 mph /  8.0 km/h 63 % 0 in /  0.0 mm
20:57 72.9 °F /  22.7 °C 59.9 °F /  15.5 °C 30.2 in /  1021.6 hPa NE 1 mph /  1.6 km/h 5 mph /  8.0 km/h 64 % 0 in /  0.0 mm
21:02 72.3 °F /  22.4 °C 59.9 °F /  15.5 °C 30.2 in /  1021.6 hPa Calm   5 mph /  8.0 km/h 65 % 0 in /  0.0 mm
21:07 71.8 °F /  22.1 °C 60.3 °F /  15.7 °C 30.2 in /  1021.6 hPa NNE 2 mph /  3.2 km/h 4 mph /  6.4 km/h 67 % 0 in /  0.0 mm
21:12 71.2 °F /  21.8 °C 60.1 °F /  15.6 °C 30.2 in /  1021.6 hPa NNE 2 mph /  3.2 km/h 4 mph /  6.4 km/h 68 % 0 in /  0.0 mm
21:17 70.9 °F /  21.6 °C 60.3 °F /  15.7 °C 30.2 in /  1021.6 hPa NNE 2 mph /  3.2 km/h 4 mph /  6.4 km/h 69 % 0 in /  0.0 mm
21:22 70.5 °F /  21.4 °C 59.9 °F /  15.5 °C 30.2 in /  1021.6 hPa NNE 1 mph /  1.6 km/h 4 mph /  6.4 km/h 69 % 0 in /  0.0 mm
21:27 70.2 °F /  21.2 °C 59.9 °F /  15.5 °C 30.2 in /  1021.6 hPa NNE 2 mph /  3.2 km/h 4 mph /  6.4 km/h 70 % 0 in /  0.0 mm
21:32 69.8 °F /  21.0 °C 59.9 °F /  15.5 °C 30.2 in /  1021.6 hPa NNE 2 mph /  3.2 km/h 4 mph /  6.4 km/h 71 % 0 in /  0.0 mm
21:42 69.3 °F /  20.7 °C 59.9 °F /  15.5 °C 30.2 in /  1021.6 hPa NNE 2 mph /  3.2 km/h 4 mph /  6.4 km/h 72 % 0 in /  0.0 mm
21:52 68.5 °F /  20.3 °C 59.9 °F /  15.5 °C 30.2 in /  1021.6 hPa Calm   3 mph /  4.8 km/h 74 % 0 in /  0.0 mm
22:02 67.8 °F /  19.9 °C 59.5 °F /  15.3 °C 30.2 in /  1021.6 hPa Calm   3 mph /  4.8 km/h 75 % 0 in /  0.0 mm
22:12 67.6 °F /  19.8 °C 59.4 °F /  15.2 °C 30.2 in /  1021.6 hPa NNE 2 mph /  3.2 km/h 3 mph /  4.8 km/h 75 % 0 in /  0.0 mm
22:17 67.5 °F /  19.7 °C 59.5 °F /  15.3 °C 30.2 in /  1021.6 hPa NE 2 mph /  3.2 km/h 3 mph /  4.8 km/h 76 % 0 in /  0.0 mm
22:22 67.5 °F /  19.7 °C 59.5 °F /  15.3 °C 30.2 in /  1021.6 hPa Calm   3 mph /  4.8 km/h 76 % 0 in /  0.0 mm
22:27 67.5 °F /  19.7 °C 59.5 °F /  15.3 °C 30.2 in /  1021.9 hPa Calm   4 mph /  6.4 km/h 76 % 0 in /  0.0 mm
22:32 67.5 °F /  19.7 °C 59.5 °F /  15.3 °C 30.2 in /  1021.9 hPa NE 3 mph /  4.8 km/h 4 mph /  6.4 km/h 76 % 0 in /  0.0 mm
22:42 67.3 °F /  19.6 °C 59.5 °F /  15.3 °C 30.2 in /  1021.9 hPa Calm   3 mph /  4.8 km/h 76 % 0 in /  0.0 mm
22:47 67.1 °F /  19.5 °C 59.4 °F /  15.2 °C 30.2 in /  1021.9 hPa Calm   3 mph /  4.8 km/h 76 % 0 in /  0.0 mm
22:52 66.9 °F /  19.4 °C 59.2 °F /  15.1 °C 30.2 in /  1021.9 hPa North 1 mph /  1.6 km/h 3 mph /  4.8 km/h 76 % 0 in /  0.0 mm
23:02 66.7 °F /  19.3 °C 59.4 °F /  15.2 °C 30.2 in /  1021.9 hPa NE 1 mph /  1.6 km/h 2 mph /  3.2 km/h 77 % 0 in /  0.0 mm
23:12 66.9 °F /  19.4 °C 59.2 °F /  15.1 °C 30.2 in /  1021.9 hPa NNE 2 mph /  3.2 km/h 4 mph /  6.4 km/h 76 % 0 in /  0.0 mm
23:17 66.9 °F /  19.4 °C 59.2 °F /  15.1 °C 30.2 in /  1021.9 hPa NNE 1 mph /  1.6 km/h 4 mph /  6.4 km/h 76 % 0 in /  0.0 mm
23:22 66.7 °F /  19.3 °C 59 °F /  15.0 °C 30.2 in /  1021.6 hPa NNE 3 mph /  4.8 km/h 4 mph /  6.4 km/h 76 % 0 in /  0.0 mm
23:27 66.7 °F /  19.3 °C 59 °F /  15.0 °C 30.2 in /  1021.6 hPa Calm   5 mph /  8.0 km/h 76 % 0 in /  0.0 mm
23:32 66.6 °F /  19.2 °C 58.8 °F /  14.9 °C 30.2 in /  1021.6 hPa Calm   5 mph /  8.0 km/h 76 % 0 in /  0.0 mm
23:42 66.6 °F /  19.2 °C 59.2 °F /  15.1 °C 30.2 in /  1021.9 hPa NNE 1 mph /  1.6 km/h 4 mph /  6.4 km/h 77 % 0 in /  0.0 mm
23:47 66.2 °F /  19.0 °C 58.8 °F /  14.9 °C 30.2 in /  1021.9 hPa Calm   4 mph /  6.4 km/h 77 % 0 in /  0.0 mm
23:57 66 °F /  18.9 °C 59 °F /  15.0 °C 30.2 in /  1021.9 hPa Calm   3 mph /  4.8 km/h 78 % 0 in /  0.0 mm
Meteo18
Compliments of Weather Underground - 4 mb

Script developed by  Jim McMurry - jmcmurry@mwt.net Adapted for the template by  Wim van der Kuil - Leuven-Template.eu

You find our weather info also at:

European Weather Network

Weather Underground

Equipment we use:

Weather-station
Davis Vue

Weather-program
Meteohub

Weather-server
Raspberry PI 2 B+

Provider
1 and 1

Davis Vue

Meteohub

Raspberry PI 2 B+

1 and 1